Time;durP1;ratioP1;P1;durP2;ratioP2;P2;SDS_P1;SDS_P2;PMS_P1;PMS_P2;Temp;Humidity;BMP_temperature;BMP_pressure;BME280_temperature;BME280_humidity;BME280_pressure;Samples;Min_cycle;Max_cycle;Signal;HPM_P1;HPM_P2
2024/01/18 01:15:37;;;;;;;;;;;;;;;-4.15;100.00;98912.94;4858885;29;19936;-72
2024/01/18 01:18:04;;;;;;;;;;;;;;;-4.21;100.00;98915.34;4861668;29;20376;-72
2024/01/18 01:20:30;;;;;;;;;;;;;;;-4.21;100.00;98915.34;4860963;29;20077;-72
2024/01/18 01:22:55;;;;;;;;;;;;;;;-4.03;100.00;98921.41;4860730;29;20389;-73
2024/01/18 01:25:22;;;;;;;;;;;;;;;-3.98;100.00;98927.06;4860747;29;20477;-72
2024/01/18 01:27:47;;;;;;;;;;;;;;;-4.15;100.00;98926.06;4859981;29;20078;-72
2024/01/18 01:30:12;;;;;;;;;;;;;;;-4.27;100.00;98925.47;4860212;29;20022;-73
2024/01/18 01:32:37;;;;;;;;;;;;;;;-4.33;100.00;98931.31;4859677;29;19924;-73
2024/01/18 01:35:03;;;;;;;;;;;;;;;-4.38;100.00;98927.47;4860236;29;19929;-73
2024/01/18 01:37:28;;;;;;;;;;;;;;;-4.41;100.00;98937.28;4860448;29;20337;-72
2024/01/18 01:39:56;;;;;;;;;;;;;;;-4.50;100.00;98932.94;4860420;29;19924;-72
2024/01/18 01:42:21;;;;;;;;;;;;;;;-4.54;100.00;98941.25;4860636;29;19940;-72
2024/01/18 01:44:46;;;;;;;;;;;;;;;-4.53;100.00;98937.66;4860325;29;19928;-72
2024/01/18 01:47:12;;;;;;;;;;;;;;;-4.51;100.00;98947.03;4859956;29;20381;-73
2024/01/18 01:49:37;;;;;;;;;;;;;;;-4.56;100.00;98944.03;4859770;29;19947;-73
2024/01/18 01:52:02;;;;;;;;;;;;;;;-4.58;100.00;98946.81;4860739;29;20018;-73
2024/01/18 01:54:29;;;;;;;;;;;;;;;-4.64;100.00;98943.94;4860134;29;19924;-73
2024/01/18 01:56:54;;;;;;;;;;;;;;;-4.62;100.00;98944.63;4860644;29;20082;-72
2024/01/18 01:59:19;;;;;;;;;;;;;;;-4.63;100.00;98945.59;4859592;29;20059;-74
2024/01/18 02:01:45;;;;;;;;;;;;;;;-4.66;100.00;98956.38;4859828;29;19932;-73
2024/01/18 02:04:10;;;;;;;;;;;;;;;-4.68;100.00;98956.53;4859818;29;19976;-73
2024/01/18 02:06:36;;;;;;;;;;;;;;;-4.65;100.00;98956.22;4861702;29;20403;-73
2024/01/18 02:09:01;;;;;;;;;;;;;;;-4.63;100.00;98959.53;4863147;29;19924;-73
2024/01/18 03:07:35;;;;;;;;;;;;;;;-4.68;100.00;98998.56;4936108;23;20371;-72
2024/01/18 03:10:00;;;;;;;;;;;;;;;-4.75;100.00;98993.03;4911666;29;19932;-73
2024/01/18 03:12:25;;;;;;;;;;;;;;;-4.82;100.00;98986.72;4897911;29;20236;-73
2024/01/18 03:14:50;;;;;;;;;;;;;;;-4.88;100.00;98987.28;4898655;29;20277;-73
2024/01/18 03:17:15;;;;;;;;;;;;;;;-4.91;100.00;98984.94;4896299;29;19923;-73
2024/01/18 03:19:41;;;;;;;;;;;;;;;-4.91;100.00;98985.78;4897903;29;19923;-73
2024/01/18 03:22:06;;;;;;;;;;;;;;;-4.92;100.00;98978.88;4897435;29;19931;-72
2024/01/18 03:24:32;;;;;;;;;;;;;;;-4.93;100.00;98979.00;4897032;29;20368;-72
2024/01/18 03:26:57;;;;;;;;;;;;;;;-4.96;100.00;98977.50;4898298;29;20296;-72
2024/01/18 03:29:22;;;;;;;;;;;;;;;-5.03;100.00;98985.13;4898765;29;19924;-73
2024/01/18 03:31:47;;;;;;;;;;;;;;;-5.11;100.00;98982.38;4900336;29;19949;-72
2024/01/18 03:34:13;;;;;;;;;;;;;;;-5.19;100.00;98987.50;4903876;29;19935;-72
2024/01/18 03:36:38;;;;;;;;;;;;;;;-5.24;100.00;98976.59;4918337;29;19912;-72
2024/01/18 03:39:06;;;;;;;;;;;;;;;-5.25;100.00;98982.81;4910513;29;20344;-72
2024/01/18 03:41:31;;;;;;;;;;;;;;;-5.26;100.00;98976.75;4898576;29;19930;-72
2024/01/18 03:43:57;;;;;;;;;;;;;;;-5.34;100.00;98982.72;4900696;29;19971;-73
2024/01/18 03:46:22;;;;;;;;;;;;;;;-5.37;100.00;98984.78;4900206;29;20363;-73
2024/01/18 03:48:47;;;;;;;;;;;;;;;-5.38;100.00;98983.97;4900401;29;20394;-72
2024/01/18 03:51:12;;;;;;;;;;;;;;;-5.39;100.00;98991.97;4901551;29;20417;-73
2024/01/18 03:53:40;;;;;;;;;;;;;;;-5.51;100.00;98986.88;4899914;29;20714;-74
2024/01/18 03:56:05;;;;;;;;;;;;;;;-5.60;100.00;98984.25;4882581;29;19924;-72
2024/01/18 03:58:30;;;;;;;;;;;;;;;-5.71;100.00;98978.19;4898138;29;19923;-73
2024/01/18 04:00:55;;;;;;;;;;;;;;;-5.76;100.00;98974.34;4900170;29;20010;-72
2024/01/18 04:03:21;;;;;;;;;;;;;;;-5.84;100.00;98985.53;4899395;29;20011;-72
2024/01/18 04:05:46;;;;;;;;;;;;;;;-5.90;100.00;98996.53;4899172;29;20002;-72
2024/01/18 04:08:11;;;;;;;;;;;;;;;-5.97;100.00;98991.84;4899200;29;19923;-72
2024/01/18 04:10:36;;;;;;;;;;;;;;;-5.95;100.00;98995.16;4899516;29;19931;-72
2024/01/18 04:13:02;;;;;;;;;;;;;;;-6.04;100.00;98995.16;4899079;29;19920;-72
2024/01/18 04:15:27;;;;;;;;;;;;;;;-6.04;100.00;99000.41;4899849;29;19943;-72
2024/01/18 04:17:52;;;;;;;;;;;;;;;-6.18;100.00;99005.09;4899643;29;19923;-72
2024/01/18 04:20:21;;;;;;;;;;;;;;;-6.29;100.00;99003.41;4899334;29;19967;-72
2024/01/18 04:22:46;;;;;;;;;;;;;;;-6.40;100.00;99008.75;4899901;29;20337;-72
2024/01/18 04:25:12;;;;;;;;;;;;;;;-6.38;100.00;99009.47;4882200;29;19919;-72
2024/01/18 04:27:37;;;;;;;;;;;;;;;-6.23;100.00;99016.94;4899180;29;20484;-72
2024/01/18 04:30:03;;;;;;;;;;;;;;;-6.08;100.00;99020.81;4899569;29;19919;-72
2024/01/18 04:32:28;;;;;;;;;;;;;;;-5.90;100.00;99018.31;4898296;29;20169;-72
2024/01/18 04:34:53;;;;;;;;;;;;;;;-5.88;100.00;99021.63;4899471;29;19931;-72
2024/01/18 04:37:18;;;;;;;;;;;;;;;-6.09;100.00;99019.97;4899457;29;19920;-71
2024/01/18 04:39:43;;;;;;;;;;;;;;;-6.21;100.00;99026.31;4898276;29;19923;-72
2024/01/18 04:42:09;;;;;;;;;;;;;;;-6.38;100.00;99025.16;4899092;29;19931;-72
2024/01/18 04:44:34;;;;;;;;;;;;;;;-6.49;100.00;99035.72;4899163;29;20292;-73
2024/01/18 04:47:02;;;;;;;;;;;;;;;-6.61;100.00;99037.59;4898514;29;20269;-72
2024/01/18 04:49:28;;;;;;;;;;;;;;;-6.73;100.00;99047.34;4899511;29;19919;-72
2024/01/18 04:51:54;;;;;;;;;;;;;;;-6.70;100.00;99050.53;4899372;29;20013;-71
2024/01/18 05:02:47;;;;;;;;;;;;;;;-6.86;100.00;99056.22;4897526;29;19930;-73
2024/01/18 05:08:55;;;;;;;;;;;;;;;-7.04;100.00;99061.22;4894443;29;19938;-73
2024/01/18 05:11:21;;;;;;;;;;;;;;;-7.08;100.00;99053.78;4842644;29;19928;-73
2024/01/18 05:13:53;;;;;;;;;;;;;;;-7.05;100.00;99056.09;4904775;23;19928;-72
2024/01/18 05:16:30;;;;;;;;;;;;;;;-7.07;100.00;99065.91;4897796;29;19928;-72
2024/01/18 05:18:55;;;;;;;;;;;;;;;-7.10;100.00;99066.16;4898963;29;19924;-73
2024/01/18 05:21:22;;;;;;;;;;;;;;;-7.19;100.00;99065.94;4899631;29;19978;-72
2024/01/18 05:26:22;;;;;;;;;;;;;;;-7.27;100.00;99081.44;5142927;23;19934;-72
2024/01/18 05:28:48;;;;;;;;;;;;;;;-7.33;100.00;99080.16;4898138;29;19924;-72
2024/01/18 05:31:13;;;;;;;;;;;;;;;-7.37;100.00;99075.28;4898743;29;19927;-72
2024/01/18 05:33:38;;;;;;;;;;;;;;;-7.37;100.00;99080.53;4898285;29;19926;-72
2024/01/18 05:36:04;;;;;;;;;;;;;;;-7.34;100.00;99080.28;4898078;29;20067;-73
2024/01/18 05:38:32;;;;;;;;;;;;;;;-7.39;100.00;99077.19;4897809;29;20380;-72
2024/01/18 05:40:58;;;;;;;;;;;;;;;-7.43;100.00;99083.66;4898269;29;19930;-72
2024/01/18 05:45:58;;;;;;;;;;;;;;;-7.49;100.00;99090.19;5167840;23;19938;-72
2024/01/18 05:48:23;;;;;;;;;;;;;;;-7.52;100.00;99080.81;4899769;29;20280;-72
2024/01/18 06:01:36;;;;;;;;;;;;;;;-7.53;100.00;99107.09;5344412;23;19927;-72
2024/01/18 06:04:02;;;;;;;;;;;;;;;-7.56;100.00;99123.00;4897535;29;20389;-73
2024/01/18 06:06:27;;;;;;;;;;;;;;;-7.61;100.00;99126.00;4894507;29;20377;-72
2024/01/18 06:08:53;;;;;;;;;;;;;;;-7.61;100.00;99131.22;4896346;29;19928;-75
2024/01/18 06:11:21;;;;;;;;;;;;;;;-7.67;100.00;99123.88;4897273;29;20022;-73
2024/01/18 06:13:47;;;;;;;;;;;;;;;-7.74;100.00;99125.31;4896496;29;19923;-72
2024/01/18 06:16:12;;;;;;;;;;;;;;;-7.79;100.00;99123.91;4896467;29;19950;-73
2024/01/18 06:18:38;;;;;;;;;;;;;;;-7.66;100.00;99138.59;4897717;29;19978;-73
2024/01/18 06:21:14;;;;;;;;;;;;;;;-7.67;100.00;99144.78;4908611;29;19935;-73
2024/01/18 06:23:40;;;;;;;;;;;;;;;-7.71;100.00;99144.19;4904964;29;19979;-72
2024/01/18 06:26:10;;;;;;;;;;;;;;;-7.72;100.00;99142.53;4897706;29;19932;-72
2024/01/18 06:28:38;;;;;;;;;;;;;;;-7.77;100.00;99153.38;4897716;29;20387;-72
2024/01/18 06:31:04;;;;;;;;;;;;;;;-7.82;100.00;99158.09;4897418;29;19931;-73
2024/01/18 06:33:29;;;;;;;;;;;;;;;-7.85;100.00;99166.19;4895972;29;20395;-73
2024/01/18 06:35:54;;;;;;;;;;;;;;;-7.87;100.00;99162.84;4898198;29;19989;-73
2024/01/18 06:38:22;;;;;;;;;;;;;;;-7.87;100.00;99170.69;4897464;29;19959;-74
2024/01/18 06:40:48;;;;;;;;;;;;;;;-7.87;100.00;99178.53;4897291;29;19958;-74
2024/01/18 06:43:16;;;;;;;;;;;;;;;-7.88;100.00;99179.47;4898433;29;19962;-72
2024/01/18 06:45:41;;;;;;;;;;;;;;;-7.91;100.00;99187.53;4898355;29;19927;-72
2024/01/18 06:50:42;;;;;;;;;;;;;;;-8.00;100.00;99177.84;4875334;29;19928;-72
2024/01/18 06:53:10;;;;;;;;;;;;;;;-8.03;100.00;99198.97;4847731;29;20437;-73
2024/01/18 06:55:35;;;;;;;;;;;;;;;-8.01;100.00;99195.25;4847903;29;19925;-73
2024/01/18 06:58:03;;;;;;;;;;;;;;;-7.99;100.00;99203.81;4843183;29;19935;-73
2024/01/18 07:00:28;;;;;;;;;;;;;;;-7.81;100.00;99193.72;4840925;29;20059;-73
2024/01/18 07:02:54;;;;;;;;;;;;;;;-7.80;100.00;99211.06;4844175;29;20026;-73
2024/01/18 07:05:19;;;;;;;;;;;;;;;-7.68;100.00;99209.28;4849158;29;19959;-74
2024/01/18 07:07:47;;;;;;;;;;;;;;;-7.68;100.00;99211.03;4857254;29;19935;-73
2024/01/18 07:47:20;;;;;;;;;;;;;;;-7.71;100.00;99260.94;4875543;29;20399;-74
2024/01/18 07:50:01;;;;;;;;;;;;;;;-7.70;100.00;99273.03;4874977;29;20435;-74
2024/01/18 07:52:44;;;;;;;;;;;;;;;-7.62;100.00;99263.66;4876100;29;19923;-75
2024/01/18 07:55:09;;;;;;;;;;;;;;;-7.51;100.00;99262.81;4876577;29;19924;-75
2024/01/18 07:57:34;;;;;;;;;;;;;;;-7.49;100.00;99266.16;4876125;29;20292;-74
2024/01/18 08:00:00;;;;;;;;;;;;;;;-7.43;100.00;99280.50;4875762;29;19951;-74
2024/01/18 08:02:26;;;;;;;;;;;;;;;-7.41;100.00;99288.25;4876353;29;20018;-74
2024/01/18 08:04:51;;;;;;;;;;;;;;;-7.33;100.00;99291.06;4876972;29;20289;-74
2024/01/18 08:07:17;;;;;;;;;;;;;;;-7.28;100.00;99302.00;4876287;29;19924;-73
2024/01/18 08:09:42;;;;;;;;;;;;;;;-7.20;100.00;99298.78;4874662;29;19934;-73
2024/01/18 08:12:07;;;;;;;;;;;;;;;-7.04;100.00;99303.63;4876857;29;19923;-73
2024/01/18 08:14:33;;;;;;;;;;;;;;;-6.94;100.00;99301.94;4875252;29;19932;-74
2024/01/18 08:16:58;;;;;;;;;;;;;;;-6.80;100.00;99313.09;4876385;29;19967;-74
2024/01/18 08:19:24;;;;;;;;;;;;;;;-6.75;100.00;99316.16;4876160;29;19930;-74
2024/01/18 08:21:50;;;;;;;;;;;;;;;-6.68;100.00;99327.78;4876135;29;19924;-74
2024/01/18 08:24:15;;;;;;;;;;;;;;;-6.65;100.00;99322.31;4876312;29;19961;-74
2024/01/18 08:26:40;;;;;;;;;;;;;;;-6.54;100.00;99324.06;4876153;29;20340;-73
2024/01/18 08:29:06;;;;;;;;;;;;;;;-6.50;100.00;99322.88;4876052;29;19927;-74
2024/01/18 09:01:34;;;;;;;;;;;;;;;-5.49;100.00;99373.00;5831718;23;19938;-74
2024/01/18 09:03:59;;;;;;;;;;;;;;;-5.41;100.00;99374.16;4899029;29;19924;-74
2024/01/18 09:06:25;;;;;;;;;;;;;;;-5.25;100.00;99384.16;4897887;29;19923;-74
2024/01/18 09:08:50;;;;;;;;;;;;;;;-5.16;100.00;99391.25;4897758;29;20034;-74
2024/01/18 09:11:15;;;;;;;;;;;;;;;-5.04;100.00;99390.19;4899459;29;19930;-74
2024/01/18 09:16:16;;;;;;;;;;;;;;;-4.88;100.00;99394.09;5098631;23;19932;-74
2024/01/18 09:18:44;;;;;;;;;;;;;;;-4.83;100.00;99391.91;4919721;29;19995;-74
2024/01/18 09:21:09;;;;;;;;;;;;;;;-4.76;100.00;99405.34;4891941;29;19932;-74
2024/01/18 09:23:38;;;;;;;;;;;;;;;-4.73;100.00;99405.88;4901304;29;19930;-74
2024/01/18 09:26:03;;;;;;;;;;;;;;;-4.62;100.00;99406.75;4900945;29;20501;-74
2024/01/18 09:28:28;;;;;;;;;;;;;;;-4.50;100.00;99407.47;4895647;29;20006;-73
2024/01/18 09:30:57;;;;;;;;;;;;;;;-4.45;100.00;99419.25;4897843;29;19923;-74
2024/01/18 09:33:22;;;;;;;;;;;;;;;-4.40;100.00;99426.72;4898515;29;19931;-74
2024/01/18 09:38:15;;;;;;;;;;;;;;;-4.36;100.00;99435.13;4896220;29;19943;-75
2024/01/18 09:40:40;;;;;;;;;;;;;;;-4.35;100.00;99436.81;4898641;29;19923;-74
2024/01/18 09:43:07;;;;;;;;;;;;;;;-4.30;100.00;99442.50;4897237;29;19930;-73
2024/01/18 09:45:32;;;;;;;;;;;;;;;-4.24;100.00;99443.75;4901874;29;19934;-74
2024/01/18 09:47:57;;;;;;;;;;;;;;;-4.11;100.00;99453.03;4916879;29;19928;-74
2024/01/18 09:50:23;;;;;;;;;;;;;;;-3.97;100.00;99449.16;4907070;29;19939;-74
2024/01/18 09:52:49;;;;;;;;;;;;;;;-3.92;100.00;99461.91;4884030;29;19923;-74
2024/01/18 09:55:14;;;;;;;;;;;;;;;-3.73;100.00;99473.38;4882986;29;19930;-74
2024/01/18 09:57:41;;;;;;;;;;;;;;;-3.70;100.00;99486.22;4897195;29;19923;-74
2024/01/18 10:00:08;;;;;;;;;;;;;;;-3.63;100.00;99494.44;4880178;29;20316;-74
2024/01/18 10:02:33;;;;;;;;;;;;;;;-3.62;100.00;99489.03;4881079;29;19934;-73
2024/01/18 10:05:00;;;;;;;;;;;;;;;-3.61;100.00;99495.09;4897259;29;19928;-73
2024/01/18 10:07:28;;;;;;;;;;;;;;;-3.64;100.00;99495.41;4896096;29;20288;-73
2024/01/18 10:09:55;;;;;;;;;;;;;;;-3.59;100.00;99503.69;4897932;29;19931;-73
2024/01/18 10:12:20;;;;;;;;;;;;;;;-3.53;100.00;99508.41;4909800;29;19967;-73
2024/01/18 10:14:46;;;;;;;;;;;;;;;-3.42;100.00;99515.31;4901990;29;20380;-73
2024/01/18 10:17:23;;;;;;;;;;;;;;;-3.25;100.00;99513.75;4898273;29;20010;-73
2024/01/18 10:19:57;;;;;;;;;;;;;;;-3.22;100.00;99521.38;4891204;29;20281;-75
2024/01/18 10:22:23;;;;;;;;;;;;;;;-3.18;100.00;99521.94;4890331;29;19920;-73
2024/01/18 10:24:48;;;;;;;;;;;;;;;-3.07;100.00;99524.41;4896716;29;19954;-73
2024/01/18 10:27:14;;;;;;;;;;;;;;;-3.05;100.00;99533.81;4897913;29;19930;-73
2024/01/18 10:29:40;;;;;;;;;;;;;;;-2.87;100.00;99535.72;4895494;29;19965;-72
2024/01/18 10:32:08;;;;;;;;;;;;;;;-2.70;100.00;99538.59;4897324;29;19923;-73
2024/01/18 10:34:34;;;;;;;;;;;;;;;-2.64;100.00;99535.38;4897373;29;19962;-71
2024/01/18 10:36:59;;;;;;;;;;;;;;;-2.61;100.00;99546.47;4905803;29;19927;-72
2024/01/18 10:39:24;;;;;;;;;;;;;;;-2.50;100.00;99542.00;4912871;29;20406;-72
2024/01/18 10:41:50;;;;;;;;;;;;;;;-2.45;100.00;99547.66;4903189;29;20400;-72
2024/01/18 10:44:15;;;;;;;;;;;;;;;-2.44;100.00;99551.94;4895964;29;19923;-73
2024/01/18 10:46:40;;;;;;;;;;;;;;;-2.42;100.00;99552.63;4896589;29;19923;-72
2024/01/18 10:49:06;;;;;;;;;;;;;;;-2.33;100.00;99559.69;4896534;29;19930;-71
2024/01/18 10:51:31;;;;;;;;;;;;;;;-2.21;100.00;99567.41;4895718;29;19943;-72
2024/01/18 10:53:57;;;;;;;;;;;;;;;-2.17;100.00;99563.50;4895002;29;20010;-72
2024/01/18 10:56:23;;;;;;;;;;;;;;;-2.08;100.00;99562.59;4895734;29;19924;-72
2024/01/18 10:58:48;;;;;;;;;;;;;;;-1.93;100.00;99559.47;4862901;29;19927;-73
2024/01/18 11:01:13;;;;;;;;;;;;;;;-1.75;100.00;99562.97;4877503;29;19931;-73
2024/01/18 11:03:39;;;;;;;;;;;;;;;-1.76;100.00;99563.94;4879788;29;19923;-73
2024/01/18 11:06:09;;;;;;;;;;;;;;;-1.72;100.00;99565.31;4878704;29;19926;-72
2024/01/18 11:08:34;;;;;;;;;;;;;;;-1.55;100.00;99565.47;4878867;29;19920;-73
2024/01/18 11:10:59;;;;;;;;;;;;;;;-1.43;100.00;99566.09;4902782;29;20430;-73
2024/01/18 11:13:25;;;;;;;;;;;;;;;-1.28;100.00;99579.59;4901202;29;20450;-73
2024/01/18 11:15:52;;;;;;;;;;;;;;;-1.19;100.00;99573.38;4895235;29;19923;-73
2024/01/18 11:18:17;;;;;;;;;;;;;;;-1.04;100.00;99586.03;4879511;29;20015;-73
2024/01/18 11:20:58;;;;;;;;;;;;;;;-0.97;100.00;99592.38;4894986;29;20014;-73
2024/01/18 11:23:33;;;;;;;;;;;;;;;-0.88;100.00;99590.63;4895636;29;19930;-72
2024/01/18 11:25:58;;;;;;;;;;;;;;;-0.90;100.00;99593.44;4895655;29;19919;-73
2024/01/18 11:28:24;;;;;;;;;;;;;;;-0.79;100.00;99595.81;4904240;29;19923;-73
2024/01/18 11:30:50;;;;;;;;;;;;;;;-0.74;100.00;99602.47;4882333;29;19935;-74
2024/01/18 12:47:19;;;;;;;;;;;;;;;8.00;53.57;99717.84;4505638;23;20429;-75
2024/01/18 12:49:45;;;;;;;;;;;;;;;8.40;52.10;99716.94;4880065;29;19923;-76
2024/01/18 12:52:11;;;;;;;;;;;;;;;8.08;50.59;99712.25;4896929;29;20296;-74
2024/01/18 12:54:36;;;;;;;;;;;;;;;8.31;50.56;99717.13;4880837;29;19931;-75
2024/01/18 12:57:04;;;;;;;;;;;;;;;8.65;49.33;99730.50;4897169;29;19938;-75
2024/01/18 12:59:30;;;;;;;;;;;;;;;8.38;49.99;99722.50;4894128;29;19959;-75
2024/01/18 13:01:55;;;;;;;;;;;;;;;8.57;50.40;99730.72;4897068;29;20342;-75
2024/01/18 13:04:21;;;;;;;;;;;;;;;8.23;50.76;99721.91;4901695;29;19926;-76
2024/01/18 13:06:46;;;;;;;;;;;;;;;8.20;50.81;99731.19;4898384;29;19947;-76
2024/01/18 13:09:11;;;;;;;;;;;;;;;8.58;50.38;99743.94;4897879;29;20288;-77
2024/01/18 13:11:37;;;;;;;;;;;;;;;8.27;49.76;99740.06;4897153;29;20045;-76
2024/01/18 13:14:06;;;;;;;;;;;;;;;7.41;51.56;99742.53;4878607;29;19962;-77
2024/01/18 13:16:31;;;;;;;;;;;;;;;7.36;51.67;99745.00;4896957;29;19931;-77
2024/01/18 13:19:03;;;;;;;;;;;;;;;8.05;52.37;99750.19;4897153;29;20023;-77
2024/01/18 13:21:28;;;;;;;;;;;;;;;8.35;50.77;99753.22;4896249;29;19919;-77
2024/01/18 13:23:54;;;;;;;;;;;;;;;8.44;50.95;99764.56;4897725;29;19955;-78
2024/01/18 13:26:19;;;;;;;;;;;;;;;7.96;51.03;99760.28;4897549;29;19931;-77
2024/01/18 13:28:44;;;;;;;;;;;;;;;7.87;53.15;99757.00;4897215;29;20062;-77
2024/01/18 13:31:09;;;;;;;;;;;;;;;8.00;53.38;99766.88;4905809;29;20034;-77
2024/01/18 13:33:38;;;;;;;;;;;;;;;8.18;52.57;99768.94;4896929;29;20019;-76
2024/01/18 13:36:03;;;;;;;;;;;;;;;7.80;52.89;99771.41;4895166;29;19927;-76
2024/01/18 13:38:29;;;;;;;;;;;;;;;7.72;53.58;99777.81;4897345;29;19927;-76
2024/01/18 13:40:54;;;;;;;;;;;;;;;7.57;53.55;99783.38;4897050;29;20050;-76
2024/01/18 13:43:19;;;;;;;;;;;;;;;6.96;55.76;99788.56;4895392;29;20018;-76
2024/01/18 13:45:44;;;;;;;;;;;;;;;7.32;56.60;99796.50;4896770;29;20014;-76
2024/01/18 13:48:09;;;;;;;;;;;;;;;7.43;56.11;99803.94;4895678;29;20159;-76
2024/01/18 13:50:35;;;;;;;;;;;;;;;7.23;56.35;99814.59;4892646;29;20056;-77
2024/01/18 13:53:00;;;;;;;;;;;;;;;7.97;54.61;99812.84;4894642;29;19998;-76
2024/01/18 13:55:25;;;;;;;;;;;;;;;7.82;54.01;99817.59;4886998;29;19923;-75
2024/01/18 13:57:50;;;;;;;;;;;;;;;7.24;56.43;99818.88;4885353;29;19923;-76
2024/01/18 14:00:16;;;;;;;;;;;;;;;6.91;57.01;99822.25;4890511;29;19927;-77
2024/01/18 14:02:41;;;;;;;;;;;;;;;7.31;56.52;99829.66;4895233;29;19930;-76
2024/01/18 14:05:06;;;;;;;;;;;;;;;7.01;58.86;99828.09;4894294;29;20214;-75
2024/01/18 14:07:31;;;;;;;;;;;;;;;7.17;55.83;99834.13;4895163;29;20287;-75
2024/01/18 14:09:56;;;;;;;;;;;;;;;6.89;56.83;99845.69;4894368;29;20335;-76
2024/01/18 14:12:22;;;;;;;;;;;;;;;6.71;58.30;99855.06;4885299;29;20339;-75
2024/01/18 14:14:47;;;;;;;;;;;;;;;6.36;60.10;99863.91;4891962;29;20356;-75
2024/01/18 14:17:12;;;;;;;;;;;;;;;5.56;62.33;99863.94;4906691;29;19965;-78
2024/01/18 14:19:37;;;;;;;;;;;;;;;4.83;64.98;99861.19;4907696;29;19934;-76
2024/01/18 14:22:03;;;;;;;;;;;;;;;4.18;68.51;99855.50;4914802;29;19923;-76
2024/01/18 14:24:30;;;;;;;;;;;;;;;3.60;72.32;99863.88;4896883;29;20458;-75
2024/01/18 14:26:55;;;;;;;;;;;;;;;3.22;76.30;99871.72;4888728;29;19930;-75
2024/01/18 14:29:23;;;;;;;;;;;;;;;2.98;77.73;99876.97;4891517;29;19928;-76
2024/01/18 14:31:48;;;;;;;;;;;;;;;2.80;79.17;99881.69;4883374;29;20312;-76
2024/01/18 14:34:13;;;;;;;;;;;;;;;2.53;81.04;99881.91;4889226;29;19919;-76
2024/01/18 14:36:38;;;;;;;;;;;;;;;2.31;80.05;99879.94;4893267;29;19928;-76
2024/01/18 14:39:04;;;;;;;;;;;;;;;2.25;81.50;99890.25;4870890;29;20079;-76
2024/01/18 14:41:30;;;;;;;;;;;;;;;2.20;80.99;99892.56;4885936;29;19936;-76
2024/01/18 14:43:55;;;;;;;;;;;;;;;2.31;80.81;99907.34;4884437;29;19935;-76
2024/01/18 14:46:20;;;;;;;;;;;;;;;2.22;80.06;99903.00;4886915;29;19919;-76
2024/01/18 14:48:46;;;;;;;;;;;;;;;2.20;80.24;99908.50;4890390;29;19930;-75
2024/01/18 14:51:11;;;;;;;;;;;;;;;1.91;81.76;99906.31;4885266;29;19935;-75
2024/01/18 14:53:38;;;;;;;;;;;;;;;1.67;83.08;99905.28;4889105;29;19926;-75
2024/01/18 14:56:04;;;;;;;;;;;;;;;1.48;84.81;99924.94;4891130;29;19931;-75
2024/01/18 14:58:29;;;;;;;;;;;;;;;1.36;85.55;99922.59;4888655;29;19934;-76
2024/01/18 15:00:54;;;;;;;;;;;;;;;1.41;85.96;99932.72;4886767;29;19931;-76
2024/01/18 15:03:19;;;;;;;;;;;;;;;1.62;85.14;99932.28;4884247;29;20461;-76
2024/01/18 15:05:45;;;;;;;;;;;;;;;1.52;84.87;99944.84;4884762;29;20575;-76
2024/01/18 15:08:10;;;;;;;;;;;;;;;1.31;86.69;99948.75;4889053;29;20394;-75
2024/01/18 15:10:35;;;;;;;;;;;;;;;1.14;87.79;99953.16;4884368;29;20325;-73
2024/01/18 15:13:00;;;;;;;;;;;;;;;0.95;88.86;99964.78;4884100;29;20346;-74
2024/01/18 15:15:26;;;;;;;;;;;;;;;0.79;89.73;99969.97;4889275;29;20119;-74
2024/01/18 15:17:51;;;;;;;;;;;;;;;0.59;91.41;99970.16;4886970;29;20006;-74
2024/01/18 15:20:16;;;;;;;;;;;;;;;0.46;93.03;99981.16;4885991;29;19935;-74
2024/01/18 15:22:41;;;;;;;;;;;;;;;0.32;93.78;99985.19;4886506;29;20018;-74
2024/01/18 15:25:08;;;;;;;;;;;;;;;0.22;95.90;99979.97;4892362;29;20017;-75
2024/01/18 15:27:34;;;;;;;;;;;;;;;0.30;100.00;99989.81;4892504;29;19958;-74
2024/01/18 15:30:00;;;;;;;;;;;;;;;0.31;100.00;99996.75;4894420;29;19924;-75
2024/01/18 15:32:25;;;;;;;;;;;;;;;0.35;100.00;100003.41;4894672;29;19930;-75
2024/01/18 15:34:51;;;;;;;;;;;;;;;0.51;100.00;100001.91;4893075;29;20022;-75
2024/01/18 15:37:16;;;;;;;;;;;;;;;0.53;100.00;100016.63;4894994;29;19958;-75
2024/01/18 15:39:41;;;;;;;;;;;;;;;0.53;100.00;100014.00;4895673;29;19927;-75
2024/01/18 15:42:07;;;;;;;;;;;;;;;0.51;100.00;100021.25;4897794;29;19930;-75
2024/01/18 15:44:32;;;;;;;;;;;;;;;0.41;100.00;100026.63;4898775;29;19934;-74
2024/01/18 15:47:03;;;;;;;;;;;;;;;0.37;100.00;100030.56;4898574;29;19927;-75
2024/01/18 15:49:31;;;;;;;;;;;;;;;0.30;100.00;100048.03;4895372;29;20341;-75
2024/01/18 15:51:57;;;;;;;;;;;;;;;0.24;100.00;100056.56;4895351;29;20400;-75
2024/01/18 15:54:22;;;;;;;;;;;;;;;0.18;100.00;100067.78;4896948;29;20410;-75
2024/01/18 15:56:47;;;;;;;;;;;;;;;0.36;100.00;100081.84;4884797;29;19939;-74
2024/01/18 15:59:12;;;;;;;;;;;;;;;-0.01;100.00;100082.78;4896727;29;19934;-75
2024/01/18 16:01:37;;;;;;;;;;;;;;;-0.24;100.00;100091.09;4897397;29;19928;-74
2024/01/18 16:04:03;;;;;;;;;;;;;;;-0.49;100.00;100090.75;4895669;29;19920;-74
2024/01/18 16:06:28;;;;;;;;;;;;;;;-0.66;100.00;100097.63;4895465;29;19987;-75
2024/01/18 16:08:53;;;;;;;;;;;;;;;-0.74;100.00;100108.06;4895061;29;19976;-75
2024/01/18 16:11:18;;;;;;;;;;;;;;;-0.91;100.00;100117.53;4895392;29;20030;-75
2024/01/18 16:13:43;;;;;;;;;;;;;;;-0.97;100.00;100116.28;4895539;29;20295;-75
2024/01/18 16:16:09;;;;;;;;;;;;;;;-1.07;100.00;100131.31;4895865;29;19985;-75
2024/01/18 16:18:34;;;;;;;;;;;;;;;-1.15;100.00;100137.28;4896316;29;19976;-76
2024/01/18 16:20:59;;;;;;;;;;;;;;;-1.25;100.00;100142.56;4894863;29;19965;-74
2024/01/18 16:23:24;;;;;;;;;;;;;;;-1.30;100.00;100154.50;4891720;29;19983;-76
2024/01/18 16:25:50;;;;;;;;;;;;;;;-1.44;100.00;100156.59;4888047;29;19973;-76
2024/01/18 16:28:17;;;;;;;;;;;;;;;-1.53;100.00;100157.38;4895861;29;19971;-75
2024/01/18 16:30:42;;;;;;;;;;;;;;;-1.61;100.00;100165.16;4894925;29;19996;-75
2024/01/18 16:33:08;;;;;;;;;;;;;;;-1.74;100.00;100158.28;4895749;29;19927;-75
2024/01/18 16:35:33;;;;;;;;;;;;;;;-1.76;100.00;100165.50;4895991;29;20364;-75
2024/01/18 16:38:00;;;;;;;;;;;;;;;-1.85;100.00;100175.06;4896261;29;20359;-75
2024/01/18 16:40:32;;;;;;;;;;;;;;;-1.94;100.00;100180.31;4896000;29;19977;-75
2024/01/18 16:42:57;;;;;;;;;;;;;;;-2.06;100.00;100180.38;4895605;29;19927;-73
2024/01/18 16:45:22;;;;;;;;;;;;;;;-2.11;100.00;100190.47;4895392;29;19920;-74
2024/01/18 16:47:48;;;;;;;;;;;;;;;-2.22;100.00;100195.84;4895443;29;19924;-76
2024/01/18 16:50:13;;;;;;;;;;;;;;;-2.30;100.00;100202.63;4894519;29;19931;-75
2024/01/18 16:52:39;;;;;;;;;;;;;;;-2.41;100.00;100200.03;4901982;29;19982;-74
2024/01/18 16:55:04;;;;;;;;;;;;;;;-2.53;100.00;100208.97;4894771;29;19915;-74
2024/01/18 16:57:31;;;;;;;;;;;;;;;-2.60;100.00;100212.13;4892005;29;20399;-74
2024/01/18 16:59:56;;;;;;;;;;;;;;;-2.71;100.00;100222.72;4895252;29;19986;-75
2024/01/18 17:02:21;;;;;;;;;;;;;;;-2.68;100.00;100234.78;4895058;29;19966;-76
2024/01/18 17:04:46;;;;;;;;;;;;;;;-2.76;100.00;100236.28;4894753;29;19927;-76
2024/01/18 17:07:11;;;;;;;;;;;;;;;-2.86;100.00;100242.41;4895861;29;19916;-75
2024/01/18 17:09:37;;;;;;;;;;;;;;;-2.92;100.00;100249.84;4896764;29;20015;-75
2024/01/18 17:12:02;;;;;;;;;;;;;;;-2.98;100.00;100254.78;4893797;29;19955;-75
2024/01/18 17:14:27;;;;;;;;;;;;;;;-2.99;100.00;100263.63;4895728;29;20035;-75
2024/01/18 17:16:52;;;;;;;;;;;;;;;-3.09;100.00;100263.53;4889833;29;21122;-77
2024/01/18 17:19:18;;;;;;;;;;;;;;;-2.99;100.00;100266.25;4893162;29;19924;-74
2024/01/18 17:21:43;;;;;;;;;;;;;;;-3.06;100.00;100266.75;4893384;29;19923;-76
2024/01/18 17:24:09;;;;;;;;;;;;;;;-3.12;100.00;100274.31;4894808;29;19958;-74
2024/01/18 17:26:34;;;;;;;;;;;;;;;-3.18;100.00;100280.06;4889840;29;19931;-74
2024/01/18 17:29:00;;;;;;;;;;;;;;;-3.23;100.00;100285.69;4894487;29;19966;-78
2024/01/18 17:31:25;;;;;;;;;;;;;;;-3.28;100.00;100288.69;4894147;29;19931;-75
2024/01/18 17:33:50;;;;;;;;;;;;;;;-3.33;100.00;100293.47;4893952;29;20523;-75
2024/01/18 17:36:15;;;;;;;;;;;;;;;-3.35;100.00;100306.75;4893160;29;21103;-75
2024/01/18 17:38:41;;;;;;;;;;;;;;;-3.37;100.00;100313.13;4894535;29;19931;-75
2024/01/18 17:41:06;;;;;;;;;;;;;;;-3.39;100.00;100315.84;4892798;29;19923;-74